sensor_id;sensor_type;location;lat;lon;timestamp;P1;durP1;ratioP1;P2;durP2;ratioP2
73515;SDS011;61763;51.416;5.442;2023-01-31T00:00:54;14.32;;;2.47;;
73515;SDS011;61763;51.416;5.442;2023-01-31T00:03:21;20.92;;;2.25;;
73515;SDS011;61763;51.416;5.442;2023-01-31T00:05:48;11.48;;;2.03;;
73515;SDS011;61763;51.416;5.442;2023-01-31T00:08:13;17.77;;;2.00;;
73515;SDS011;61763;51.416;5.442;2023-01-31T00:10:40;14.75;;;1.98;;
73515;SDS011;61763;51.416;5.442;2023-01-31T00:13:05;12.43;;;2.00;;
73515;SDS011;61763;51.416;5.442;2023-01-31T00:15:31;12.00;;;2.38;;
73515;SDS011;61763;51.416;5.442;2023-01-31T00:17:57;18.83;;;2.13;;
73515;SDS011;61763;51.416;5.442;2023-01-31T00:20:23;12.48;;;2.25;;
73515;SDS011;61763;51.416;5.442;2023-01-31T00:22:48;11.85;;;2.63;;
73515;SDS011;61763;51.416;5.442;2023-01-31T00:25:14;12.02;;;2.28;;
73515;SDS011;61763;51.416;5.442;2023-01-31T00:27:39;11.43;;;2.15;;
73515;SDS011;61763;51.416;5.442;2023-01-31T00:30:05;9.23;;;1.80;;
73515;SDS011;61763;51.416;5.442;2023-01-31T00:32:31;7.40;;;2.47;;
73515;SDS011;61763;51.416;5.442;2023-01-31T00:34:57;13.35;;;2.10;;
73515;SDS011;61763;51.416;5.442;2023-01-31T00:37:22;14.23;;;2.67;;
73515;SDS011;61763;51.416;5.442;2023-01-31T00:39:47;26.42;;;3.17;;
73515;SDS011;61763;51.416;5.442;2023-01-31T00:42:13;15.85;;;2.38;;
73515;SDS011;61763;51.416;5.442;2023-01-31T00:44:38;10.40;;;2.65;;
73515;SDS011;61763;51.416;5.442;2023-01-31T00:47:04;16.45;;;2.72;;
73515;SDS011;61763;51.416;5.442;2023-01-31T00:49:29;5.82;;;1.83;;
73515;SDS011;61763;51.416;5.442;2023-01-31T00:51:54;17.67;;;1.70;;
73515;SDS011;61763;51.416;5.442;2023-01-31T00:54:20;9.88;;;1.73;;
73515;SDS011;61763;51.416;5.442;2023-01-31T00:56:45;5.55;;;2.22;;
73515;SDS011;61763;51.416;5.442;2023-01-31T00:59:11;13.50;;;1.88;;
73515;SDS011;61763;51.416;5.442;2023-01-31T01:01:36;15.48;;;1.48;;
73515;SDS011;61763;51.416;5.442;2023-01-31T01:04:02;12.65;;;2.30;;
73515;SDS011;61763;51.416;5.442;2023-01-31T01:06:28;11.02;;;2.40;;
73515;SDS011;61763;51.416;5.442;2023-01-31T01:08:54;14.70;;;2.38;;
73515;SDS011;61763;51.416;5.442;2023-01-31T01:11:23;10.60;;;2.13;;
73515;SDS011;61763;51.416;5.442;2023-01-31T01:13:57;16.45;;;2.53;;
73515;SDS011;61763;51.416;5.442;2023-01-31T01:16:25;22.02;;;2.08;;
73515;SDS011;61763;51.416;5.442;2023-01-31T01:18:52;20.67;;;2.28;;
73515;SDS011;61763;51.416;5.442;2023-01-31T01:21:22;13.10;;;2.17;;
73515;SDS011;61763;51.416;5.442;2023-01-31T01:23:49;11.45;;;2.05;;
73515;SDS011;61763;51.416;5.442;2023-01-31T01:26:16;13.55;;;2.17;;
73515;SDS011;61763;51.416;5.442;2023-01-31T01:28:45;8.68;;;2.33;;
73515;SDS011;61763;51.416;5.442;2023-01-31T01:31:11;22.00;;;3.35;;
73515;SDS011;61763;51.416;5.442;2023-01-31T01:33:40;9.75;;;2.38;;
73515;SDS011;61763;51.416;5.442;2023-01-31T01:36:07;13.60;;;1.83;;
73515;SDS011;61763;51.416;5.442;2023-01-31T01:38:38;11.95;;;2.72;;
73515;SDS011;61763;51.416;5.442;2023-01-31T01:52:11;13.20;;;2.22;;
73515;SDS011;61763;51.416;5.442;2023-01-31T01:54:41;12.45;;;2.65;;
73515;SDS011;61763;51.416;5.442;2023-01-31T01:57:12;19.15;;;2.55;;
73515;SDS011;61763;51.416;5.442;2023-01-31T01:59:45;13.85;;;2.53;;
73515;SDS011;61763;51.416;5.442;2023-01-31T02:02:16;12.30;;;3.85;;
73515;SDS011;61763;51.416;5.442;2023-01-31T02:04:42;14.95;;;3.00;;
73515;SDS011;61763;51.416;5.442;2023-01-31T02:07:10;14.48;;;3.95;;
73515;SDS011;61763;51.416;5.442;2023-01-31T02:12:32;9.45;;;3.13;;
73515;SDS011;61763;51.416;5.442;2023-01-31T02:14:59;18.80;;;4.55;;
73515;SDS011;61763;51.416;5.442;2023-01-31T02:17:24;16.88;;;5.25;;
73515;SDS011;61763;51.416;5.442;2023-01-31T02:19:55;21.15;;;6.10;;
73515;SDS011;61763;51.416;5.442;2023-01-31T02:38:06;21.05;;;5.35;;
73515;SDS011;61763;51.416;5.442;2023-01-31T02:46:30;18.30;;;4.38;;
73515;SDS011;61763;51.416;5.442;2023-01-31T02:49:13;19.70;;;5.32;;
73515;SDS011;61763;51.416;5.442;2023-01-31T02:51:41;21.17;;;5.88;;
73515;SDS011;61763;51.416;5.442;2023-01-31T02:54:29;22.52;;;7.00;;
73515;SDS011;61763;51.416;5.442;2023-01-31T02:57:17;23.48;;;4.45;;
73515;SDS011;61763;51.416;5.442;2023-01-31T02:59:43;14.07;;;4.57;;
73515;SDS011;61763;51.416;5.442;2023-01-31T03:02:10;18.38;;;6.50;;
73515;SDS011;61763;51.416;5.442;2023-01-31T03:04:36;15.88;;;5.97;;
73515;SDS011;61763;51.416;5.442;2023-01-31T03:07:06;22.13;;;6.00;;
73515;SDS011;61763;51.416;5.442;2023-01-31T03:09:45;15.88;;;6.05;;
73515;SDS011;61763;51.416;5.442;2023-01-31T03:15:34;15.15;;;4.65;;
73515;SDS011;61763;51.416;5.442;2023-01-31T03:19:00;24.33;;;5.30;;
73515;SDS011;61763;51.416;5.442;2023-01-31T03:21:45;28.33;;;5.72;;
73515;SDS011;61763;51.416;5.442;2023-01-31T03:24:17;18.25;;;5.43;;
73515;SDS011;61763;51.416;5.442;2023-01-31T03:26:43;21.85;;;5.55;;
73515;SDS011;61763;51.416;5.442;2023-01-31T03:29:12;18.17;;;6.72;;
73515;SDS011;61763;51.416;5.442;2023-01-31T03:31:52;16.58;;;5.05;;
73515;SDS011;61763;51.416;5.442;2023-01-31T03:34:20;18.90;;;6.13;;
73515;SDS011;61763;51.416;5.442;2023-01-31T03:37:07;14.63;;;5.90;;
73515;SDS011;61763;51.416;5.442;2023-01-31T03:39:51;20.83;;;6.65;;
73515;SDS011;61763;51.416;5.442;2023-01-31T03:42:56;20.88;;;5.07;;
73515;SDS011;61763;51.416;5.442;2023-01-31T03:50:42;22.23;;;6.70;;
73515;SDS011;61763;51.416;5.442;2023-01-31T03:55:43;26.17;;;5.85;;
73515;SDS011;61763;51.416;5.442;2023-01-31T03:58:17;23.17;;;5.22;;
73515;SDS011;61763;51.416;5.442;2023-01-31T04:00:44;18.90;;;7.20;;
73515;SDS011;61763;51.416;5.442;2023-01-31T04:03:17;24.70;;;6.45;;
73515;SDS011;61763;51.416;5.442;2023-01-31T04:05:47;16.52;;;7.13;;
73515;SDS011;61763;51.416;5.442;2023-01-31T04:08:13;26.05;;;6.35;;
73515;SDS011;61763;51.416;5.442;2023-01-31T04:10:40;30.35;;;9.32;;
73515;SDS011;61763;51.416;5.442;2023-01-31T04:13:06;25.60;;;5.82;;
73515;SDS011;61763;51.416;5.442;2023-01-31T04:15:31;21.13;;;6.72;;
73515;SDS011;61763;51.416;5.442;2023-01-31T04:17:57;26.40;;;6.43;;
73515;SDS011;61763;51.416;5.442;2023-01-31T04:20:22;15.70;;;5.93;;
73515;SDS011;61763;51.416;5.442;2023-01-31T04:22:48;27.30;;;6.50;;
73515;SDS011;61763;51.416;5.442;2023-01-31T04:25:13;26.08;;;7.20;;
73515;SDS011;61763;51.416;5.442;2023-01-31T04:27:38;22.15;;;8.38;;
73515;SDS011;61763;51.416;5.442;2023-01-31T04:30:06;19.48;;;4.60;;
73515;SDS011;61763;51.416;5.442;2023-01-31T04:32:32;15.90;;;6.40;;
73515;SDS011;61763;51.416;5.442;2023-01-31T04:34:57;18.10;;;5.28;;
73515;SDS011;61763;51.416;5.442;2023-01-31T04:37:24;25.25;;;7.70;;
73515;SDS011;61763;51.416;5.442;2023-01-31T04:39:49;23.27;;;6.95;;
73515;SDS011;61763;51.416;5.442;2023-01-31T04:42:15;21.33;;;7.43;;
73515;SDS011;61763;51.416;5.442;2023-01-31T04:44:40;19.20;;;7.13;;
73515;SDS011;61763;51.416;5.442;2023-01-31T04:47:05;17.70;;;7.03;;
73515;SDS011;61763;51.416;5.442;2023-01-31T04:49:31;20.83;;;7.30;;
73515;SDS011;61763;51.416;5.442;2023-01-31T04:51:56;16.80;;;5.57;;
73515;SDS011;61763;51.416;5.442;2023-01-31T04:54:21;25.42;;;6.32;;
73515;SDS011;61763;51.416;5.442;2023-01-31T04:56:47;17.77;;;6.07;;
73515;SDS011;61763;51.416;5.442;2023-01-31T04:59:12;19.20;;;6.63;;
73515;SDS011;61763;51.416;5.442;2023-01-31T05:01:38;17.42;;;5.45;;
73515;SDS011;61763;51.416;5.442;2023-01-31T05:04:03;23.15;;;5.75;;
73515;SDS011;61763;51.416;5.442;2023-01-31T05:06:28;16.15;;;6.03;;
73515;SDS011;61763;51.416;5.442;2023-01-31T05:08:54;32.05;;;7.35;;
73515;SDS011;61763;51.416;5.442;2023-01-31T05:11:19;19.98;;;5.25;;
73515;SDS011;61763;51.416;5.442;2023-01-31T05:13:45;28.70;;;6.55;;
73515;SDS011;61763;51.416;5.442;2023-01-31T05:16:11;24.17;;;7.90;;
73515;SDS011;61763;51.416;5.442;2023-01-31T05:18:37;18.38;;;8.07;;
73515;SDS011;61763;51.416;5.442;2023-01-31T05:21:04;21.38;;;5.90;;
73515;SDS011;61763;51.416;5.442;2023-01-31T05:23:31;15.98;;;5.07;;
73515;SDS011;61763;51.416;5.442;2023-01-31T05:25:58;23.60;;;6.82;;
73515;SDS011;61763;51.416;5.442;2023-01-31T05:28:24;22.95;;;5.68;;
73515;SDS011;61763;51.416;5.442;2023-01-31T05:30:50;30.20;;;6.97;;
73515;SDS011;61763;51.416;5.442;2023-01-31T05:33:25;18.77;;;5.85;;
73515;SDS011;61763;51.416;5.442;2023-01-31T05:35:51;18.92;;;5.53;;
73515;SDS011;61763;51.416;5.442;2023-01-31T05:38:17;25.88;;;6.68;;
73515;SDS011;61763;51.416;5.442;2023-01-31T05:40:42;24.95;;;4.90;;
73515;SDS011;61763;51.416;5.442;2023-01-31T05:43:07;14.32;;;4.00;;
73515;SDS011;61763;51.416;5.442;2023-01-31T05:45:33;17.92;;;5.85;;
73515;SDS011;61763;51.416;5.442;2023-01-31T05:47:58;26.15;;;6.07;;
73515;SDS011;61763;51.416;5.442;2023-01-31T05:50:23;18.77;;;5.80;;
73515;SDS011;61763;51.416;5.442;2023-01-31T05:52:53;22.35;;;5.95;;
73515;SDS011;61763;51.416;5.442;2023-01-31T05:55:20;20.33;;;6.35;;
73515;SDS011;61763;51.416;5.442;2023-01-31T05:57:46;15.00;;;4.72;;
73515;SDS011;61763;51.416;5.442;2023-01-31T06:00:12;9.27;;;4.05;;
73515;SDS011;61763;51.416;5.442;2023-01-31T06:02:39;20.85;;;5.00;;
73515;SDS011;61763;51.416;5.442;2023-01-31T06:05:05;17.05;;;6.30;;
73515;SDS011;61763;51.416;5.442;2023-01-31T06:07:31;18.25;;;5.38;;
73515;SDS011;61763;51.416;5.442;2023-01-31T06:09:57;18.80;;;5.05;;
73515;SDS011;61763;51.416;5.442;2023-01-31T06:12:22;21.10;;;5.63;;
73515;SDS011;61763;51.416;5.442;2023-01-31T06:14:47;17.17;;;4.60;;
73515;SDS011;61763;51.416;5.442;2023-01-31T06:17:13;17.60;;;4.57;;
73515;SDS011;61763;51.416;5.442;2023-01-31T06:19:38;14.32;;;3.50;;
73515;SDS011;61763;51.416;5.442;2023-01-31T06:22:04;14.73;;;4.63;;
73515;SDS011;61763;51.416;5.442;2023-01-31T06:24:30;28.52;;;5.10;;
73515;SDS011;61763;51.416;5.442;2023-01-31T06:26:55;16.23;;;5.18;;
73515;SDS011;61763;51.416;5.442;2023-01-31T06:29:20;12.82;;;4.13;;
73515;SDS011;61763;51.416;5.442;2023-01-31T06:31:46;19.33;;;5.53;;
73515;SDS011;61763;51.416;5.442;2023-01-31T06:34:11;23.25;;;5.35;;
73515;SDS011;61763;51.416;5.442;2023-01-31T06:36:37;14.73;;;3.97;;
73515;SDS011;61763;51.416;5.442;2023-01-31T06:39:02;16.75;;;4.05;;
73515;SDS011;61763;51.416;5.442;2023-01-31T06:41:28;13.75;;;5.07;;
73515;SDS011;61763;51.416;5.442;2023-01-31T06:43:54;10.38;;;3.88;;
73515;SDS011;61763;51.416;5.442;2023-01-31T06:46:20;19.35;;;4.57;;
73515;SDS011;61763;51.416;5.442;2023-01-31T06:48:45;16.60;;;3.58;;
73515;SDS011;61763;51.416;5.442;2023-01-31T06:51:12;14.43;;;4.53;;
73515;SDS011;61763;51.416;5.442;2023-01-31T06:53:38;11.40;;;4.63;;
73515;SDS011;61763;51.416;5.442;2023-01-31T06:56:03;10.52;;;3.83;;
73515;SDS011;61763;51.416;5.442;2023-01-31T06:58:29;17.38;;;4.85;;
73515;SDS011;61763;51.416;5.442;2023-01-31T07:00:55;15.55;;;4.80;;
73515;SDS011;61763;51.416;5.442;2023-01-31T07:03:21;13.45;;;4.32;;
73515;SDS011;61763;51.416;5.442;2023-01-31T07:05:47;10.15;;;3.83;;
73515;SDS011;61763;51.416;5.442;2023-01-31T07:08:12;14.90;;;4.55;;
73515;SDS011;61763;51.416;5.442;2023-01-31T07:10:38;11.85;;;3.97;;
73515;SDS011;61763;51.416;5.442;2023-01-31T07:13:03;13.20;;;3.70;;
73515;SDS011;61763;51.416;5.442;2023-01-31T07:15:29;7.43;;;2.75;;
73515;SDS011;61763;51.416;5.442;2023-01-31T07:17:58;19.52;;;4.18;;
73515;SDS011;61763;51.416;5.442;2023-01-31T07:20:24;18.00;;;4.57;;
73515;SDS011;61763;51.416;5.442;2023-01-31T07:22:56;10.88;;;4.32;;
73515;SDS011;61763;51.416;5.442;2023-01-31T07:25:23;10.18;;;4.35;;
73515;SDS011;61763;51.416;5.442;2023-01-31T07:27:49;10.43;;;3.72;;
73515;SDS011;61763;51.416;5.442;2023-01-31T07:30:15;14.05;;;2.97;;
73515;SDS011;61763;51.416;5.442;2023-01-31T07:32:40;12.50;;;5.30;;
73515;SDS011;61763;51.416;5.442;2023-01-31T07:35:06;14.10;;;3.28;;
73515;SDS011;61763;51.416;5.442;2023-01-31T07:37:32;18.63;;;4.53;;
73515;SDS011;61763;51.416;5.442;2023-01-31T07:39:57;17.73;;;3.55;;
73515;SDS011;61763;51.416;5.442;2023-01-31T07:42:23;12.23;;;3.35;;
73515;SDS011;61763;51.416;5.442;2023-01-31T07:44:48;10.85;;;3.17;;
73515;SDS011;61763;51.416;5.442;2023-01-31T07:47:13;13.63;;;3.90;;
73515;SDS011;61763;51.416;5.442;2023-01-31T07:49:39;12.98;;;2.95;;
73515;SDS011;61763;51.416;5.442;2023-01-31T07:52:04;11.77;;;3.20;;
73515;SDS011;61763;51.416;5.442;2023-01-31T07:54:30;13.63;;;3.20;;
73515;SDS011;61763;51.416;5.442;2023-01-31T07:56:55;11.73;;;4.10;;
73515;SDS011;61763;51.416;5.442;2023-01-31T07:59:21;15.63;;;2.85;;
73515;SDS011;61763;51.416;5.442;2023-01-31T08:01:46;12.48;;;4.05;;
73515;SDS011;61763;51.416;5.442;2023-01-31T08:04:30;10.05;;;2.60;;
73515;SDS011;61763;51.416;5.442;2023-01-31T08:06:55;13.60;;;2.90;;
73515;SDS011;61763;51.416;5.442;2023-01-31T08:09:21;8.48;;;2.65;;
73515;SDS011;61763;51.416;5.442;2023-01-31T08:11:47;13.30;;;2.75;;
73515;SDS011;61763;51.416;5.442;2023-01-31T08:14:13;11.23;;;3.22;;
73515;SDS011;61763;51.416;5.442;2023-01-31T08:16:38;11.65;;;3.45;;
73515;SDS011;61763;51.416;5.442;2023-01-31T08:19:04;14.55;;;3.15;;
73515;SDS011;61763;51.416;5.442;2023-01-31T08:21:30;12.88;;;2.10;;
73515;SDS011;61763;51.416;5.442;2023-01-31T08:23:55;10.77;;;3.92;;
73515;SDS011;61763;51.416;5.442;2023-01-31T08:26:20;8.00;;;2.50;;
73515;SDS011;61763;51.416;5.442;2023-01-31T08:28:49;10.05;;;1.88;;
73515;SDS011;61763;51.416;5.442;2023-01-31T08:31:18;13.65;;;2.28;;
73515;SDS011;61763;51.416;5.442;2023-01-31T08:33:45;10.20;;;3.28;;
73515;SDS011;61763;51.416;5.442;2023-01-31T08:36:12;10.50;;;2.38;;
73515;SDS011;61763;51.416;5.442;2023-01-31T08:38:40;12.82;;;2.38;;
73515;SDS011;61763;51.416;5.442;2023-01-31T08:41:06;12.52;;;3.83;;
73515;SDS011;61763;51.416;5.442;2023-01-31T08:43:31;8.68;;;2.20;;
73515;SDS011;61763;51.416;5.442;2023-01-31T08:45:57;7.72;;;1.38;;
73515;SDS011;61763;51.416;5.442;2023-01-31T08:48:22;9.98;;;2.20;;
73515;SDS011;61763;51.416;5.442;2023-01-31T08:50:49;13.10;;;1.95;;
73515;SDS011;61763;51.416;5.442;2023-01-31T08:53:14;12.13;;;3.08;;
73515;SDS011;61763;51.416;5.442;2023-01-31T08:55:39;11.60;;;2.43;;
73515;SDS011;61763;51.416;5.442;2023-01-31T08:58:06;9.00;;;2.03;;
73515;SDS011;61763;51.416;5.442;2023-01-31T09:00:31;10.30;;;2.00;;
73515;SDS011;61763;51.416;5.442;2023-01-31T09:02:58;13.95;;;2.53;;
73515;SDS011;61763;51.416;5.442;2023-01-31T09:05:25;10.40;;;1.40;;
73515;SDS011;61763;51.416;5.442;2023-01-31T09:07:52;13.50;;;3.22;;
73515;SDS011;61763;51.416;5.442;2023-01-31T09:10:18;9.05;;;2.28;;
73515;SDS011;61763;51.416;5.442;2023-01-31T09:12:44;8.07;;;1.77;;
73515;SDS011;61763;51.416;5.442;2023-01-31T09:15:10;13.63;;;2.67;;
73515;SDS011;61763;51.416;5.442;2023-01-31T09:17:36;14.23;;;1.92;;
73515;SDS011;61763;51.416;5.442;2023-01-31T09:20:03;8.80;;;1.73;;
73515;SDS011;61763;51.416;5.442;2023-01-31T09:22:33;9.65;;;2.00;;
73515;SDS011;61763;51.416;5.442;2023-01-31T09:24:59;12.15;;;2.53;;
73515;SDS011;61763;51.416;5.442;2023-01-31T09:27:25;11.30;;;2.53;;
73515;SDS011;61763;51.416;5.442;2023-01-31T09:29:51;8.38;;;1.05;;
73515;SDS011;61763;51.416;5.442;2023-01-31T09:32:17;8.23;;;1.50;;
73515;SDS011;61763;51.416;5.442;2023-01-31T09:34:44;11.52;;;2.38;;
73515;SDS011;61763;51.416;5.442;2023-01-31T09:39:36;11.23;;;2.67;;
73515;SDS011;61763;51.416;5.442;2023-01-31T09:44:44;8.38;;;1.63;;
73515;SDS011;61763;51.416;5.442;2023-01-31T09:47:25;14.70;;;1.45;;
73515;SDS011;61763;51.416;5.442;2023-01-31T09:52:27;6.55;;;1.42;;
73515;SDS011;61763;51.416;5.442;2023-01-31T09:54:55;14.10;;;2.03;;
73515;SDS011;61763;51.416;5.442;2023-01-31T09:57:25;9.68;;;2.95;;
73515;SDS011;61763;51.416;5.442;2023-01-31T10:00:04;10.18;;;2.42;;
73515;SDS011;61763;51.416;5.442;2023-01-31T10:05:25;9.85;;;2.60;;
73515;SDS011;61763;51.416;5.442;2023-01-31T10:10:55;7.03;;;1.50;;
73515;SDS011;61763;51.416;5.442;2023-01-31T10:13:34;8.60;;;2.10;;
73515;SDS011;61763;51.416;5.442;2023-01-31T10:18:57;7.35;;;2.72;;
73515;SDS011;61763;51.416;5.442;2023-01-31T10:21:40;13.65;;;2.92;;
73515;SDS011;61763;51.416;5.442;2023-01-31T10:26:35;11.03;;;2.10;;
73515;SDS011;61763;51.416;5.442;2023-01-31T10:34:26;6.32;;;2.80;;
73515;SDS011;61763;51.416;5.442;2023-01-31T10:39:30;9.27;;;2.03;;
73515;SDS011;61763;51.416;5.442;2023-01-31T10:47:28;11.35;;;3.70;;
73515;SDS011;61763;51.416;5.442;2023-01-31T10:49:58;10.35;;;1.98;;
73515;SDS011;61763;51.416;5.442;2023-01-31T10:58:00;8.90;;;2.92;;
73515;SDS011;61763;51.416;5.442;2023-01-31T11:00:27;5.13;;;1.88;;
73515;SDS011;61763;51.416;5.442;2023-01-31T11:02:57;17.38;;;3.05;;
73515;SDS011;61763;51.416;5.442;2023-01-31T11:05:23;11.32;;;2.80;;
73515;SDS011;61763;51.416;5.442;2023-01-31T11:07:51;9.70;;;3.47;;
73515;SDS011;61763;51.416;5.442;2023-01-31T11:12:51;9.73;;;3.97;;
73515;SDS011;61763;51.416;5.442;2023-01-31T11:15:24;12.85;;;3.95;;
73515;SDS011;61763;51.416;5.442;2023-01-31T11:17:53;7.20;;;2.85;;
73515;SDS011;61763;51.416;5.442;2023-01-31T11:20:26;10.40;;;4.57;;
73515;SDS011;61763;51.416;5.442;2023-01-31T11:23:08;12.15;;;4.45;;
73515;SDS011;61763;51.416;5.442;2023-01-31T11:25:37;15.10;;;5.40;;
73515;SDS011;61763;51.416;5.442;2023-01-31T11:28:04;12.13;;;4.35;;
73515;SDS011;61763;51.416;5.442;2023-01-31T11:30:46;12.15;;;4.97;;
73515;SDS011;61763;51.416;5.442;2023-01-31T11:36:22;16.48;;;4.72;;
73515;SDS011;61763;51.416;5.442;2023-01-31T11:38:48;11.63;;;4.13;;
73515;SDS011;61763;51.416;5.442;2023-01-31T11:44:05;10.00;;;3.97;;
73515;SDS011;61763;51.416;5.442;2023-01-31T11:46:31;13.57;;;5.78;;
73515;SDS011;61763;51.416;5.442;2023-01-31T11:49:08;16.60;;;5.53;;
73515;SDS011;61763;51.416;5.442;2023-01-31T11:51:36;14.80;;;6.22;;
73515;SDS011;61763;51.416;5.442;2023-01-31T11:54:04;13.52;;;6.72;;
73515;SDS011;61763;51.416;5.442;2023-01-31T11:56:30;18.30;;;5.45;;
73515;SDS011;61763;51.416;5.442;2023-01-31T11:59:01;13.85;;;4.03;;
73515;SDS011;61763;51.416;5.442;2023-01-31T12:01:40;11.57;;;3.53;;
73515;SDS011;61763;51.416;5.442;2023-01-31T12:04:17;8.63;;;3.20;;
73515;SDS011;61763;51.416;5.442;2023-01-31T12:06:59;8.82;;;3.53;;
73515;SDS011;61763;51.416;5.442;2023-01-31T12:09:30;17.27;;;5.10;;
73515;SDS011;61763;51.416;5.442;2023-01-31T12:12:51;18.27;;;5.18;;
73515;SDS011;61763;51.416;5.442;2023-01-31T12:14:59;17.95;;;5.45;;
73515;SDS011;61763;51.416;5.442;2023-01-31T12:17:30;14.75;;;5.20;;
73515;SDS011;61763;51.416;5.442;2023-01-31T12:22:38;14.15;;;5.00;;
73515;SDS011;61763;51.416;5.442;2023-01-31T12:36:52;15.70;;;4.28;;
73515;SDS011;61763;51.416;5.442;2023-01-31T12:39:33;14.05;;;6.13;;
73515;SDS011;61763;51.416;5.442;2023-01-31T12:51:01;24.35;;;5.50;;
73515;SDS011;61763;51.416;5.442;2023-01-31T12:53:47;14.00;;;4.57;;
73515;SDS011;61763;51.416;5.442;2023-01-31T12:56:34;11.25;;;5.05;;
73515;SDS011;61763;51.416;5.442;2023-01-31T13:05:32;13.20;;;5.15;;
73515;SDS011;61763;51.416;5.442;2023-01-31T13:08:24;16.65;;;7.30;;
73515;SDS011;61763;51.416;5.442;2023-01-31T13:10:57;14.90;;;6.63;;
73515;SDS011;61763;51.416;5.442;2023-01-31T13:13:31;24.17;;;7.30;;
73515;SDS011;61763;51.416;5.442;2023-01-31T13:16:04;17.05;;;5.63;;
73515;SDS011;61763;51.416;5.442;2023-01-31T13:18:33;14.57;;;6.53;;
73515;SDS011;61763;51.416;5.442;2023-01-31T13:21:03;25.90;;;8.35;;
73515;SDS011;61763;51.416;5.442;2023-01-31T13:23:33;15.00;;;6.70;;
73515;SDS011;61763;51.416;5.442;2023-01-31T13:26:06;14.88;;;5.30;;
73515;SDS011;61763;51.416;5.442;2023-01-31T13:32:15;20.60;;;8.32;;
73515;SDS011;61763;51.416;5.442;2023-01-31T13:37:33;17.20;;;7.90;;
73515;SDS011;61763;51.416;5.442;2023-01-31T13:40:03;18.27;;;7.68;;
73515;SDS011;61763;51.416;5.442;2023-01-31T13:42:40;18.88;;;7.78;;
73515;SDS011;61763;51.416;5.442;2023-01-31T13:45:06;17.45;;;7.53;;
73515;SDS011;61763;51.416;5.442;2023-01-31T13:47:43;17.33;;;5.65;;
73515;SDS011;61763;51.416;5.442;2023-01-31T13:52:55;11.90;;;5.75;;
73515;SDS011;61763;51.416;5.442;2023-01-31T13:55:41;14.27;;;5.57;;
73515;SDS011;61763;51.416;5.442;2023-01-31T13:58:21;18.45;;;8.68;;
73515;SDS011;61763;51.416;5.442;2023-01-31T14:00:49;16.02;;;8.02;;
73515;SDS011;61763;51.416;5.442;2023-01-31T14:09:23;19.17;;;8.23;;
73515;SDS011;61763;51.416;5.442;2023-01-31T14:11:51;17.98;;;7.38;;
73515;SDS011;61763;51.416;5.442;2023-01-31T14:14:22;24.08;;;7.65;;
73515;SDS011;61763;51.416;5.442;2023-01-31T14:16:52;16.20;;;7.90;;
73515;SDS011;61763;51.416;5.442;2023-01-31T14:21:43;17.40;;;6.07;;
73515;SDS011;61763;51.416;5.442;2023-01-31T14:24:19;19.60;;;8.80;;
73515;SDS011;61763;51.416;5.442;2023-01-31T14:29:45;19.25;;;6.75;;
73515;SDS011;61763;51.416;5.442;2023-01-31T14:32:37;17.20;;;6.65;;
73515;SDS011;61763;51.416;5.442;2023-01-31T14:35:03;18.90;;;8.48;;
73515;SDS011;61763;51.416;5.442;2023-01-31T14:46:28;10.88;;;4.20;;
73515;SDS011;61763;51.416;5.442;2023-01-31T14:52:21;13.20;;;5.18;;
73515;SDS011;61763;51.416;5.442;2023-01-31T14:57:29;15.57;;;5.75;;
73515;SDS011;61763;51.416;5.442;2023-01-31T15:02:25;12.60;;;5.78;;
73515;SDS011;61763;51.416;5.442;2023-01-31T15:05:36;10.70;;;4.05;;
73515;SDS011;61763;51.416;5.442;2023-01-31T15:16:27;9.57;;;5.45;;
73515;SDS011;61763;51.416;5.442;2023-01-31T15:19:05;13.68;;;6.72;;
73515;SDS011;61763;51.416;5.442;2023-01-31T15:21:36;13.00;;;4.22;;
73515;SDS011;61763;51.416;5.442;2023-01-31T15:24:04;16.60;;;6.93;;
73515;SDS011;61763;51.416;5.442;2023-01-31T15:26:31;11.45;;;5.03;;
73515;SDS011;61763;51.416;5.442;2023-01-31T15:28:59;19.65;;;7.25;;
73515;SDS011;61763;51.416;5.442;2023-01-31T15:31:28;18.98;;;6.50;;
73515;SDS011;61763;51.416;5.442;2023-01-31T15:34:00;13.50;;;5.68;;
73515;SDS011;61763;51.416;5.442;2023-01-31T15:36:35;12.43;;;5.80;;
73515;SDS011;61763;51.416;5.442;2023-01-31T15:39:22;13.18;;;4.82;;
73515;SDS011;61763;51.416;5.442;2023-01-31T15:41:53;9.57;;;4.60;;
73515;SDS011;61763;51.416;5.442;2023-01-31T15:44:23;14.82;;;4.13;;
73515;SDS011;61763;51.416;5.442;2023-01-31T15:46:51;7.82;;;3.33;;
73515;SDS011;61763;51.416;5.442;2023-01-31T15:57:20;13.15;;;4.18;;
73515;SDS011;61763;51.416;5.442;2023-01-31T15:59:49;16.45;;;4.75;;
73515;SDS011;61763;51.416;5.442;2023-01-31T16:02:17;16.25;;;4.88;;
73515;SDS011;61763;51.416;5.442;2023-01-31T16:04:46;14.77;;;4.65;;
73515;SDS011;61763;51.416;5.442;2023-01-31T16:07:18;11.55;;;3.55;;
73515;SDS011;61763;51.416;5.442;2023-01-31T16:09:45;12.80;;;2.70;;
73515;SDS011;61763;51.416;5.442;2023-01-31T16:12:12;9.63;;;3.10;;
73515;SDS011;61763;51.416;5.442;2023-01-31T16:14:40;11.45;;;4.28;;
73515;SDS011;61763;51.416;5.442;2023-01-31T16:17:08;10.60;;;3.72;;
73515;SDS011;61763;51.416;5.442;2023-01-31T16:19:36;11.00;;;3.58;;
73515;SDS011;61763;51.416;5.442;2023-01-31T16:22:02;11.23;;;3.65;;
73515;SDS011;61763;51.416;5.442;2023-01-31T16:24:52;9.70;;;3.35;;
73515;SDS011;61763;51.416;5.442;2023-01-31T16:32:27;13.48;;;2.97;;
73515;SDS011;61763;51.416;5.442;2023-01-31T16:37:27;11.75;;;1.92;;
73515;SDS011;61763;51.416;5.442;2023-01-31T16:40:02;9.05;;;2.42;;
73515;SDS011;61763;51.416;5.442;2023-01-31T16:42:48;14.95;;;2.08;;
73515;SDS011;61763;51.416;5.442;2023-01-31T16:45:25;12.32;;;2.67;;
73515;SDS011;61763;51.416;5.442;2023-01-31T16:50:53;14.23;;;2.92;;
73515;SDS011;61763;51.416;5.442;2023-01-31T16:55:45;13.17;;;3.13;;
73515;SDS011;61763;51.416;5.442;2023-01-31T17:01:16;8.20;;;1.73;;
73515;SDS011;61763;51.416;5.442;2023-01-31T17:03:46;8.63;;;2.85;;
73515;SDS011;61763;51.416;5.442;2023-01-31T17:06:24;12.80;;;3.13;;
73515;SDS011;61763;51.416;5.442;2023-01-31T17:08:49;14.13;;;3.65;;
73515;SDS011;61763;51.416;5.442;2023-01-31T17:11:15;9.73;;;1.40;;
73515;SDS011;61763;51.416;5.442;2023-01-31T17:13:42;9.90;;;1.98;;
73515;SDS011;61763;51.416;5.442;2023-01-31T17:16:12;12.18;;;2.90;;
73515;SDS011;61763;51.416;5.442;2023-01-31T17:18:46;12.40;;;2.05;;
73515;SDS011;61763;51.416;5.442;2023-01-31T17:21:11;8.38;;;2.63;;
73515;SDS011;61763;51.416;5.442;2023-01-31T17:23:36;8.05;;;2.58;;
73515;SDS011;61763;51.416;5.442;2023-01-31T17:26:04;10.38;;;2.35;;
73515;SDS011;61763;51.416;5.442;2023-01-31T17:28:29;9.68;;;1.25;;
73515;SDS011;61763;51.416;5.442;2023-01-31T17:30:55;16.17;;;2.53;;
73515;SDS011;61763;51.416;5.442;2023-01-31T17:33:20;8.07;;;2.88;;
73515;SDS011;61763;51.416;5.442;2023-01-31T17:35:45;10.23;;;3.20;;
73515;SDS011;61763;51.416;5.442;2023-01-31T17:38:11;12.57;;;3.83;;
73515;SDS011;61763;51.416;5.442;2023-01-31T17:40:39;7.45;;;2.08;;
73515;SDS011;61763;51.416;5.442;2023-01-31T17:43:09;9.57;;;3.90;;
73515;SDS011;61763;51.416;5.442;2023-01-31T17:45:41;10.93;;;2.72;;
73515;SDS011;61763;51.416;5.442;2023-01-31T17:48:07;14.13;;;2.97;;
73515;SDS011;61763;51.416;5.442;2023-01-31T17:50:32;12.15;;;3.72;;
73515;SDS011;61763;51.416;5.442;2023-01-31T17:52:57;12.98;;;3.05;;
73515;SDS011;61763;51.416;5.442;2023-01-31T17:55:23;9.98;;;3.33;;
73515;SDS011;61763;51.416;5.442;2023-01-31T17:57:49;10.43;;;3.08;;
73515;SDS011;61763;51.416;5.442;2023-01-31T18:00:15;11.23;;;2.58;;